Time;durP1;ratioP1;P1;durP2;ratioP2;P2;SDS_P1;SDS_P2;PMS_P1;PMS_P2;Temp;Humidity;BMP_temperature;BMP_pressure;BME280_temperature;BME280_humidity;BME280_pressure;Samples;Min_cycle;Max_cycle;Signal;HPM_P1;HPM_P2
2022/09/09 00:02:08;;;;;;;2.45;2.15;;;23.50;45.60;;;;;;5071046;28;20091;-10
2022/09/09 00:04:36;;;;;;;2.25;2.05;;;23.50;45.70;;;;;;5052156;28;20057;-10
2022/09/09 00:07:17;;;;;;;2.58;1.90;;;23.40;45.60;;;;;;5070879;28;20131;-11
2022/09/09 00:09:54;;;;;;;2.10;1.90;;;23.50;45.70;;;;;;5070951;28;20084;-10
2022/09/09 00:12:33;;;;;;;2.45;2.10;;;23.50;45.70;;;;;;5071128;28;20512;-10
2022/09/09 00:15:11;;;;;;;2.10;1.90;;;23.50;45.70;;;;;;5071311;28;20056;-10
2022/09/09 00:17:57;;;;;;;1.80;1.70;;;23.50;45.70;;;;;;5070930;28;20048;-10
2022/09/09 00:20:46;;;;;;;2.47;2.00;;;23.50;45.70;;;;;;5071183;28;20139;-10
2022/09/09 00:23:24;;;;;;;2.10;1.90;;;23.50;45.60;;;;;;5070853;28;20099;-10
2022/09/09 00:26:12;;;;;;;2.17;1.98;;;23.50;45.70;;;;;;5071242;28;20052;-10
2022/09/09 00:29:09;;;;;;;2.42;2.13;;;23.40;45.60;;;;;;5070630;28;20056;-10
2022/09/09 00:31:37;;;;;;;2.38;1.92;;;23.50;45.70;;;;;;5070680;28;20064;-10
2022/09/09 00:34:17;;;;;;;2.17;1.80;;;23.40;45.60;;;;;;5070680;28;20052;-10
2022/09/09 00:36:45;;;;;;;2.30;2.10;;;23.40;45.60;;;;;;5070464;28;20060;-13
2022/09/09 00:39:22;;;;;;;2.05;1.80;;;23.50;45.70;;;;;;5070708;28;20052;-10
2022/09/09 00:41:58;;;;;;;2.08;1.83;;;23.50;45.60;;;;;;5069341;28;20400;-10
2022/09/09 00:44:36;;;;;;;1.83;1.73;;;23.50;45.70;;;;;;5070775;28;20084;-10
2022/09/09 00:47:15;;;;;;;1.80;1.70;;;23.50;45.60;;;;;;5070720;28;20044;-10
2022/09/09 00:50:00;;;;;;;2.92;2.10;;;23.40;45.60;;;;;;5051526;28;20056;-10
2022/09/09 00:52:53;;;;;;;2.17;1.77;;;23.50;45.70;;;;;;5070480;28;20052;-10
2022/09/09 00:55:35;;;;;;;2.13;1.80;;;23.40;45.60;;;;;;5052432;28;20048;-10
2022/09/09 00:58:01;;;;;;;2.53;2.10;;;23.40;45.70;;;;;;5070777;28;20049;-10
2022/09/09 01:00:31;;;;;;;2.20;2.00;;;23.50;46.20;;;;;;5070331;28;20476;-10
2022/09/09 01:03:14;;;;;;;1.77;1.60;;;23.50;45.70;;;;;;5052376;28;20059;-10
2022/09/09 01:05:50;;;;;;;2.17;1.98;;;23.40;45.60;;;;;;5070675;28;20481;-10
2022/09/09 01:08:16;;;;;;;1.83;1.70;;;23.40;45.60;;;;;;5070544;28;20056;-10
2022/09/09 01:10:53;;;;;;;2.20;2.00;;;23.40;45.60;;;;;;5052241;28;20108;-10
2022/09/09 01:13:26;;;;;;;2.58;1.90;;;23.40;45.60;;;;;;5070142;28;20052;-10
2022/09/09 01:15:54;;;;;;;1.93;1.70;;;23.50;45.80;;;;;;5070562;28;20048;-10
2022/09/09 01:18:26;;;;;;;2.05;1.85;;;23.50;45.70;;;;;;5070507;28;20172;-10
2022/09/09 01:21:00;;;;;;;2.40;2.10;;;23.50;45.70;;;;;;5069919;28;20147;-10
2022/09/09 01:23:53;;;;;;;1.90;1.80;;;23.50;45.80;;;;;;5070441;28;20052;-10
2022/09/09 01:26:42;;;;;;;2.10;1.90;;;23.40;45.70;;;;;;5052221;28;20051;-10
2022/09/09 01:29:16;;;;;;;3.53;2.10;;;23.40;45.70;;;;;;5051867;28;20103;-10
2022/09/09 01:31:56;;;;;;;2.13;2.03;;;23.50;45.80;;;;;;5052013;28;20071;-10
2022/09/09 01:34:25;;;;;;;2.10;1.90;;;23.50;45.70;;;;;;5052601;28;20048;-10
2022/09/09 01:37:07;;;;;;;2.17;1.80;;;23.40;45.70;;;;;;5051872;28;20068;-10
2022/09/09 01:39:35;;;;;;;1.90;1.80;;;23.40;45.70;;;;;;5050824;28;20410;-10
2022/09/09 01:42:07;;;;;;;1.60;1.50;;;23.40;45.70;;;;;;5067846;28;20053;-10
2022/09/09 01:44:35;;;;;;;2.20;1.90;;;23.40;45.70;;;;;;5050842;28;20071;-10
2022/09/09 01:47:01;;;;;;;2.28;2.08;;;23.40;45.70;;;;;;5050024;28;20108;-10
2022/09/09 01:49:27;;;;;;;1.90;1.80;;;23.40;45.70;;;;;;5069384;28;20190;-10
2022/09/09 01:51:56;;;;;;;1.77;1.65;;;23.40;45.70;;;;;;5069982;27;20063;-10
2022/09/09 01:54:33;;;;;;;2.65;2.08;;;23.40;45.70;;;;;;5051785;28;20101;-10
2022/09/09 01:57:09;;;;;;;;;;;23.40;45.70;;;;;;5052105;28;20084;-10
2022/09/09 02:00:11;;;;;;;2.30;2.10;;;23.40;45.80;;;;;;5050420;28;19921;-10
2022/09/09 02:03:15;;;;;;;2.03;1.83;;;23.40;45.80;;;;;;5069532;28;20461;-10
2022/09/09 02:06:04;;;;;;;1.80;1.70;;;23.40;45.80;;;;;;5051911;28;20500;-10
2022/09/09 02:08:30;;;;;;;;;;;23.40;45.80;;;;;;5051890;28;20063;-10
2022/09/09 02:11:15;;;;;;;1.95;1.63;;;23.40;45.80;;;;;;5051188;28;20322;-10
2022/09/09 02:14:12;;;;;;;1.90;1.80;;;23.40;45.80;;;;;;5051415;28;20105;-10
2022/09/09 02:16:43;;;;;;;;;;;23.40;45.70;;;;;;5050884;28;20053;-10
2022/09/09 02:19:21;;;;;;;2.22;2.03;;;23.40;45.80;;;;;;5049895;28;19924;-10
2022/09/09 02:22:05;;;;;;;2.47;1.65;;;23.40;45.80;;;;;;5069617;28;20060;-10
2022/09/09 02:24:35;;;;;;;2.17;1.80;;;23.40;45.80;;;;;;5069223;28;20154;-10
2022/09/09 02:27:13;;;;;;;1.73;1.63;;;23.40;45.80;;;;;;5051256;28;20053;-10
2022/09/09 02:29:42;;;;;;;2.40;2.15;;;23.40;45.80;;;;;;5051073;28;20052;-10
2022/09/09 02:32:22;;;;;;;1.50;1.40;;;23.40;45.80;;;;;;5049358;28;20053;-10
2022/09/09 02:34:51;;;;;;;2.40;1.98;;;23.40;45.80;;;;;;5050863;28;20063;-10
2022/09/09 02:37:22;;;;;;;2.25;2.00;;;23.40;45.80;;;;;;5049751;28;20045;-10
2022/09/09 02:39:51;;;;;;;2.22;2.03;;;23.40;45.80;;;;;;5050659;28;20574;-10
2022/09/09 02:42:20;;;;;;;2.03;1.83;;;23.40;45.80;;;;;;5050061;28;20053;-10
2022/09/09 02:44:46;;;;;;;2.00;1.77;;;23.40;45.80;;;;;;5069340;28;20496;-10
2022/09/09 02:47:30;;;;;;;2.20;2.00;;;23.40;45.80;;;;;;5051077;28;20097;-10
2022/09/09 02:50:32;;;;;;;1.90;1.70;;;23.40;45.90;;;;;;5034719;28;20053;-10
2022/09/09 02:53:11;;;;;;;1.95;1.85;;;23.40;45.90;;;;;;5051354;28;20128;-10
2022/09/09 02:55:46;;;;;;;1.93;1.60;;;23.40;45.80;;;;;;5051384;28;20397;-10
2022/09/09 02:58:16;;;;;;;2.10;1.90;;;23.40;45.80;;;;;;5050116;28;20299;-10
2022/09/09 03:00:50;;;;;;;2.10;1.90;;;23.40;45.90;;;;;;5050733;28;20055;-10
2022/09/09 03:03:19;;;;;;;1.73;1.60;;;23.40;45.90;;;;;;5068718;28;20048;-10
2022/09/09 03:05:46;;;;;;;2.10;1.90;;;23.40;45.90;;;;;;5051235;27;20498;-10
2022/09/09 03:08:13;;;;;;;2.25;2.05;;;23.40;45.90;;;;;;5050185;28;20126;-10
2022/09/09 03:10:39;;;;;;;2.22;2.03;;;23.40;45.90;;;;;;5049510;28;20056;-10
2022/09/09 03:13:05;;;;;;;1.50;1.40;;;23.40;46.00;;;;;;5049079;28;20099;-10
2022/09/09 03:15:35;;;;;;;2.00;1.80;;;23.40;45.90;;;;;;5050532;28;20057;-10
2022/09/09 03:18:02;;;;;;;2.22;1.70;;;23.40;46.00;;;;;;5050166;28;20378;-10
2022/09/09 03:20:29;;;;;;;2.00;1.90;;;23.40;46.00;;;;;;5050912;28;20064;-10
2022/09/09 03:22:57;;;;;;;2.30;1.92;;;23.40;45.90;;;;;;5051528;28;20106;-10
2022/09/09 03:25:23;;;;;;;1.70;1.60;;;23.40;45.90;;;;;;5071674;28;20549;-10
2022/09/09 03:27:54;;;;;;;1.83;1.73;;;23.40;45.90;;;;;;5035273;28;20109;-10
2022/09/09 03:30:26;;;;;;;2.28;1.90;;;23.30;45.90;;;;;;5053489;28;20400;-10
2022/09/09 03:32:55;;;;;;;2.03;1.83;;;23.30;45.90;;;;;;5053497;28;20511;-10
2022/09/09 03:35:21;;;;;;;2.42;1.90;;;23.40;46.00;;;;;;5053441;28;20060;-10
2022/09/09 03:37:47;;;;;;;2.05;1.88;;;23.40;46.00;;;;;;5053721;28;20053;-10
2022/09/09 03:40:15;;;;;;;2.00;1.80;;;23.40;46.00;;;;;;5053255;28;20090;-10
2022/09/09 03:42:43;;;;;;;2.05;1.80;;;23.40;46.00;;;;;;5053276;28;20428;-10
2022/09/09 03:45:10;;;;;;;2.20;2.00;;;23.30;46.00;;;;;;5071842;28;20056;-10
2022/09/09 03:47:38;;;;;;;1.73;1.55;;;23.40;46.00;;;;;;5037413;28;20052;-10
2022/09/09 03:50:10;;;;;;;2.22;1.80;;;23.30;46.00;;;;;;5071406;27;20139;-10
2022/09/09 03:52:40;;;;;;;2.10;1.90;;;23.30;46.00;;;;;;5053410;28;20060;-10
2022/09/09 03:55:09;;;;;;;1.67;1.58;;;23.30;46.00;;;;;;5052097;28;20052;-10
2022/09/09 03:57:36;;;;;;;1.80;1.70;;;23.40;46.00;;;;;;5053559;28;20148;-10
2022/09/09 04:00:07;;;;;;;1.90;1.70;;;23.30;46.00;;;;;;5053231;28;20051;-10
2022/09/09 04:02:43;;;;;;;1.92;1.73;;;23.40;46.00;;;;;;5071214;28;20100;-10
2022/09/09 04:05:09;;;;;;;2.25;1.80;;;23.30;46.00;;;;;;5052947;28;20512;-10
2022/09/09 04:07:36;;;;;;;2.10;1.88;;;23.30;46.00;;;;;;5052769;28;20056;-10
2022/09/09 04:10:02;;;;;;;2.28;2.05;;;23.40;46.10;;;;;;5053317;28;20055;-10
2022/09/09 04:12:29;;;;;;;2.30;2.10;;;23.30;46.00;;;;;;5052983;28;20056;-10
2022/09/09 04:14:54;;;;;;;2.13;1.92;;;23.40;46.10;;;;;;5070966;27;20053;-10
2022/09/09 04:17:20;;;;;;;1.80;1.70;;;23.30;46.00;;;;;;5070466;28;20068;-10
2022/09/09 04:19:46;;;;;;;2.00;1.80;;;23.30;46.00;;;;;;5070540;28;20053;-10
2022/09/09 04:22:12;;;;;;;2.00;1.90;;;23.30;46.10;;;;;;5051607;28;20049;-10
2022/09/09 04:24:38;;;;;;;1.85;1.70;;;23.30;46.10;;;;;;5071039;28;20512;-10
2022/09/09 04:27:04;;;;;;;2.20;2.00;;;23.30;46.00;;;;;;5051456;28;20052;-10
2022/09/09 04:29:33;;;;;;;1.73;1.63;;;23.30;46.10;;;;;;5051259;28;20053;-10
2022/09/09 04:31:58;;;;;;;2.35;1.92;;;23.30;46.10;;;;;;5070711;28;20128;-10
2022/09/09 04:34:25;;;;;;;1.75;1.65;;;23.30;46.10;;;;;;5052315;28;20490;-10
2022/09/09 04:36:53;;;;;;;2.20;2.00;;;23.30;46.10;;;;;;5052558;28;20489;-10
2022/09/09 04:39:19;;;;;;;2.25;2.03;;;23.30;46.10;;;;;;5067570;28;20052;-10
2022/09/09 04:41:45;;;;;;;2.17;1.98;;;23.30;46.10;;;;;;5052620;28;20057;-10
2022/09/09 04:44:10;;;;;;;2.22;2.03;;;23.30;46.10;;;;;;5052712;28;20088;-10
2022/09/09 04:46:36;;;;;;;1.67;1.58;;;23.30;46.10;;;;;;5071140;28;20176;-10
2022/09/09 04:49:02;;;;;;;2.13;1.90;;;23.40;46.10;;;;;;5052336;28;20402;-10
2022/09/09 04:51:32;;;;;;;2.33;2.13;;;23.30;46.10;;;;;;5052402;28;20052;-10
2022/09/09 04:53:58;;;;;;;2.58;2.10;;;23.40;46.70;;;;;;5052534;28;20055;-10
2022/09/09 04:56:26;;;;;;;1.95;1.85;;;23.30;46.10;;;;;;5035891;28;20045;-10
2022/09/09 04:58:55;;;;;;;2.03;1.83;;;23.40;46.10;;;;;;5053072;28;20481;-10
2022/09/09 05:01:25;;;;;;;2.03;1.83;;;23.30;46.10;;;;;;5051203;28;20081;-10
2022/09/09 05:03:53;;;;;;;1.85;1.75;;;23.30;46.10;;;;;;5052392;28;20489;-10
2022/09/09 05:06:22;;;;;;;2.63;2.20;;;23.30;46.10;;;;;;5052266;28;20053;-10
2022/09/09 05:08:50;;;;;;;2.20;2.00;;;23.30;46.10;;;;;;5050632;28;20070;-10
2022/09/09 05:11:28;;;;;;;2.10;1.90;;;23.30;46.10;;;;;;5036642;28;20048;-10
2022/09/09 05:13:59;;;;;;;2.35;2.15;;;23.30;46.10;;;;;;5070267;28;20053;-10
2022/09/09 05:16:24;;;;;;;2.28;2.08;;;23.40;46.20;;;;;;5052510;28;20131;-10
2022/09/09 05:18:51;;;;;;;2.00;1.85;;;23.30;46.10;;;;;;5052095;28;20100;-10
2022/09/09 05:21:19;;;;;;;2.42;2.22;;;23.30;46.10;;;;;;5051993;28;20135;-10
2022/09/09 05:23:45;;;;;;;2.35;2.00;;;23.40;46.10;;;;;;5052051;28;20048;-10
2022/09/09 05:26:16;;;;;;;1.90;1.80;;;23.40;46.10;;;;;;5050724;28;20395;-10
2022/09/09 05:28:42;;;;;;;2.17;1.98;;;23.30;46.10;;;;;;5051115;28;20053;-10
2022/09/09 05:31:11;;;;;;;2.95;2.60;;;23.40;46.10;;;;;;5052041;28;20553;-10
2022/09/09 05:33:40;;;;;;;3.05;2.30;;;23.40;46.10;;;;;;5052507;28;20059;-10
2022/09/09 05:36:08;;;;;;;2.10;2.00;;;23.40;46.60;;;;;;5052136;28;20057;-10
2022/09/09 05:38:35;;;;;;;2.65;2.45;;;23.40;46.10;;;;;;5052128;28;20140;-11
2022/09/09 05:41:02;;;;;;;2.88;2.58;;;23.30;46.00;;;;;;5051849;28;20420;-10
2022/09/09 05:43:29;;;;;;;2.35;1.98;;;23.40;46.00;;;;;;5051875;28;20088;-10
2022/09/09 05:46:01;;;;;;;2.70;1.90;;;23.40;46.00;;;;;;5050696;28;20386;-10
2022/09/09 05:48:32;;;;;;;2.10;1.90;;;23.50;46.00;;;;;;5052182;28;20040;-10
2022/09/09 05:50:59;;;;;;;1.88;1.67;;;23.50;45.80;;;;;;5052071;28;20055;-10
2022/09/09 05:53:26;;;;;;;2.72;2.10;;;23.50;45.80;;;;;;5052102;28;20185;-10
2022/09/09 05:56:04;;;;;;;2.42;2.10;;;23.60;45.80;;;;;;5051590;28;20068;-11
2022/09/09 05:58:32;;;;;;;2.05;1.95;;;23.70;45.70;;;;;;5051529;28;20045;-10
2022/09/09 06:01:09;;;;;;;2.20;2.00;;;23.70;46.10;;;;;;5035412;28;20193;-10
2022/09/09 06:03:37;;;;;;;2.30;2.10;;;23.70;45.70;;;;;;5051573;28;20493;-10
2022/09/09 06:06:06;;;;;;;2.95;2.53;;;23.70;45.80;;;;;;5051734;28;20059;-10
2022/09/09 06:08:36;;;;;;;2.38;1.95;;;23.70;45.80;;;;;;5051742;28;20057;-10
2022/09/09 06:11:04;;;;;;;2.45;2.15;;;23.60;45.70;;;;;;5068071;28;20121;-10
2022/09/09 06:13:30;;;;;;;2.33;2.10;;;23.60;45.80;;;;;;5069365;28;20485;-10
2022/09/09 06:15:56;;;;;;;2.95;2.22;;;23.60;45.80;;;;;;5051251;28;20108;-10
2022/09/09 06:18:22;;;;;;;2.42;2.22;;;23.60;45.80;;;;;;5069417;28;20068;-10
2022/09/09 06:21:03;;;;;;;3.20;2.58;;;23.60;45.80;;;;;;5069440;27;20379;-10
2022/09/09 06:23:29;;;;;;;2.35;2.15;;;23.60;45.90;;;;;;5051640;28;20493;-10
2022/09/09 06:26:06;;;;;;;2.90;1.95;;;23.60;45.80;;;;;;5051235;28;20136;-10
2022/09/09 06:28:35;;;;;;;3.45;2.50;;;23.60;45.90;;;;;;5049631;28;20080;-10
2022/09/09 06:31:04;;;;;;;3.17;2.20;;;23.60;45.90;;;;;;5051249;28;20048;-10
2022/09/09 06:33:34;;;;;;;2.42;2.22;;;23.50;45.90;;;;;;5034660;28;20052;-10
2022/09/09 06:36:06;;;;;;;2.30;2.10;;;23.50;46.00;;;;;;5051377;28;20048;-10
2022/09/09 06:38:31;;;;;;;2.38;2.17;;;23.50;46.00;;;;;;5049248;28;20049;-10
2022/09/09 06:40:59;;;;;;;2.95;2.13;;;23.50;45.90;;;;;;5051025;28;20104;-10
2022/09/09 06:43:28;;;;;;;2.67;2.05;;;23.60;45.90;;;;;;5051481;28;20056;-10
2022/09/09 06:45:56;;;;;;;3.42;2.42;;;23.60;45.90;;;;;;5050908;28;20105;-10
2022/09/09 06:48:22;;;;;;;2.28;2.08;;;23.60;45.90;;;;;;5050902;28;20080;-10
2022/09/09 06:50:49;;;;;;;3.15;2.35;;;23.60;45.90;;;;;;5051516;28;20545;-10
2022/09/09 06:53:18;;;;;;;2.53;2.33;;;23.60;45.90;;;;;;5051408;28;20049;-10
2022/09/09 06:55:45;;;;;;;3.22;2.10;;;23.60;45.80;;;;;;5051333;28;20185;-10
2022/09/09 06:58:11;;;;;;;2.50;2.30;;;23.60;45.90;;;;;;5053977;28;20056;-10
2022/09/09 07:00:38;;;;;;;2.75;2.10;;;23.60;45.80;;;;;;5053858;28;20390;-10
2022/09/09 07:03:05;;;;;;;2.63;1.85;;;23.70;45.80;;;;;;5054334;28;20381;-10
2022/09/09 07:05:31;;;;;;;2.45;2.17;;;23.70;45.70;;;;;;5054200;28;20370;-10
2022/09/09 07:07:57;;;;;;;2.92;2.25;;;23.80;45.60;;;;;;5071956;28;20085;-10
2022/09/09 07:10:23;;;;;;;2.28;2.08;;;23.90;45.40;;;;;;5053003;28;20087;-10
2022/09/09 07:12:52;;;;;;;2.33;2.10;;;24.00;45.30;;;;;;5053893;28;20054;-10
2022/09/09 07:15:19;;;;;;;2.90;1.92;;;23.90;45.30;;;;;;5053564;28;20401;-10
2022/09/09 07:17:46;;;;;;;2.60;1.77;;;23.90;45.40;;;;;;5053154;28;20056;-10
2022/09/09 07:20:12;;;;;;;2.47;2.17;;;23.80;45.50;;;;;;5052433;28;20546;-10
2022/09/09 07:22:39;;;;;;;4.45;2.20;;;23.90;45.50;;;;;;5071691;28;20052;-10
2022/09/09 07:25:06;;;;;;;2.63;2.10;;;23.80;45.50;;;;;;5054170;28;20080;-10
2022/09/09 07:27:32;;;;;;;3.00;1.98;;;23.80;45.60;;;;;;5071467;28;20068;-10
2022/09/09 07:29:58;;;;;;;2.50;2.13;;;23.80;45.70;;;;;;5053420;28;20052;-10
2022/09/09 07:32:25;;;;;;;3.40;2.05;;;23.80;45.60;;;;;;5053522;28;20056;-10
2022/09/09 07:34:51;;;;;;;2.20;2.00;;;23.90;45.50;;;;;;5071781;28;20052;-10
2022/09/09 07:37:17;;;;;;;3.40;2.17;;;24.10;45.20;;;;;;5052742;28;20055;-10
2022/09/09 07:39:44;;;;;;;2.33;2.13;;;24.20;45.10;;;;;;5071963;28;20058;-10
2022/09/09 07:42:11;;;;;;;2.97;2.40;;;24.20;45.00;;;;;;5051733;28;20048;-10
2022/09/09 07:44:39;;;;;;;2.60;2.30;;;24.20;45.00;;;;;;5053360;28;20405;-10
2022/09/09 07:47:09;;;;;;;3.55;2.28;;;24.20;44.90;;;;;;5051966;28;20053;-10
2022/09/09 07:49:41;;;;;;;2.42;1.92;;;24.30;45.00;;;;;;5059004;28;20490;-10
2022/09/09 07:52:08;;;;;;;2.30;2.10;;;24.20;45.00;;;;;;5053387;28;20105;-10
2022/09/09 07:54:35;;;;;;;3.38;2.38;;;24.30;44.90;;;;;;5052989;28;20075;-10
2022/09/09 07:57:04;;;;;;;4.72;2.17;;;24.30;44.90;;;;;;5051800;28;20053;-10
2022/09/09 07:59:30;;;;;;;2.55;2.35;;;24.30;45.00;;;;;;5051821;28;20057;-10
2022/09/09 08:01:58;;;;;;;4.88;2.30;;;24.20;45.00;;;;;;5053618;28;20087;-10
2022/09/09 08:04:28;;;;;;;3.97;2.20;;;24.20;45.00;;;;;;5053118;28;20485;-10
2022/09/09 08:06:57;;;;;;;2.33;2.13;;;24.20;45.10;;;;;;5052765;28;20044;-10
2022/09/09 08:09:28;;;;;;;2.25;2.05;;;24.20;45.10;;;;;;5052097;28;20053;-10
2022/09/09 08:11:56;;;;;;;3.40;2.10;;;24.20;45.10;;;;;;5052527;28;20060;-10
2022/09/09 08:14:23;;;;;;;2.00;1.90;;;24.20;45.00;;;;;;5052785;28;20056;-10
2022/09/09 08:16:50;;;;;;;3.00;2.50;;;24.20;45.00;;;;;;5052868;28;20509;-10
2022/09/09 08:19:20;;;;;;;5.72;2.13;;;24.20;45.00;;;;;;5051232;28;20189;-10
2022/09/09 08:21:46;;;;;;;3.40;2.17;;;24.20;45.10;;;;;;5052812;28;20052;-10
2022/09/09 08:24:16;;;;;;;2.95;2.45;;;24.20;45.10;;;;;;5053190;28;20084;-10
2022/09/09 08:26:49;;;;;;;2.22;2.03;;;24.20;45.00;;;;;;5052694;28;20185;-10
2022/09/09 08:29:15;;;;;;;2.00;1.80;;;24.30;45.00;;;;;;5052617;28;20111;-10
2022/09/09 08:31:44;;;;;;;2.13;1.75;;;24.30;45.00;;;;;;5070765;28;20401;-10
2022/09/09 08:34:11;;;;;;;2.78;2.00;;;24.40;44.90;;;;;;5052947;28;20143;-11
2022/09/09 08:36:42;;;;;;;3.00;2.22;;;24.30;44.90;;;;;;5052699;28;20049;-11
2022/09/09 08:39:10;;;;;;;2.78;2.00;;;24.30;44.90;;;;;;5052713;28;20057;-12
2022/09/09 08:42:11;;;;;;;2.65;2.00;;;24.30;45.00;;;;;;5070674;28;20048;-11
2022/09/09 08:44:56;;;;;;;4.30;2.38;;;24.30;44.90;;;;;;5051127;28;20657;-11
2022/09/09 08:48:00;;;;;;;3.28;2.38;;;24.30;45.00;;;;;;5051049;28;20064;-11
2022/09/09 08:50:31;;;;;;;2.72;2.13;;;24.30;45.00;;;;;;5053405;28;20048;-11
2022/09/09 08:53:08;;;;;;;3.42;1.98;;;24.30;45.00;;;;;;5053099;28;20200;-11
2022/09/09 08:55:52;;;;;;;2.28;2.08;;;24.20;45.00;;;;;;5052852;28;20147;-11
2022/09/09 08:58:29;;;;;;;3.88;1.98;;;24.30;45.00;;;;;;5052243;28;20095;-11
2022/09/09 09:01:09;;;;;;;3.72;2.40;;;24.30;45.00;;;;;;5052840;28;20059;-11
2022/09/09 09:03:43;;;;;;;2.97;1.80;;;24.30;45.00;;;;;;5053006;28;20104;-11
2022/09/09 09:06:29;;;;;;;3.10;2.13;;;24.30;45.00;;;;;;5052482;28;20056;-11
2022/09/09 09:09:18;;;;;;;3.10;2.05;;;24.30;45.00;;;;;;5052795;28;20063;-11
2022/09/09 09:11:51;;;;;;;1.92;1.75;;;24.40;45.00;;;;;;5051066;28;20144;-11
2022/09/09 09:14:23;;;;;;;2.83;2.13;;;24.40;44.90;;;;;;5051764;28;20049;-11
2022/09/09 09:16:58;;;;;;;2.67;2.22;;;24.40;44.90;;;;;;5051629;28;20055;-11
2022/09/09 09:19:28;;;;;;;3.67;2.30;;;24.40;44.80;;;;;;5052181;28;20132;-11
2022/09/09 09:22:19;;;;;;;2.58;1.95;;;24.50;44.80;;;;;;5069477;28;20093;-11
2022/09/09 09:24:56;;;;;;;2.35;2.15;;;24.40;44.70;;;;;;5050965;28;20143;-11
2022/09/09 09:27:46;;;;;;;2.55;2.35;;;24.40;44.80;;;;;;5053072;28;20052;-11
2022/09/09 09:30:18;;;;;;;2.13;1.80;;;24.40;44.90;;;;;;5069956;28;20118;-11
2022/09/09 09:32:54;;;;;;;3.47;2.10;;;24.40;44.80;;;;;;5052626;28;20045;-11
2022/09/09 09:35:20;;;;;;;4.15;2.10;;;24.40;44.80;;;;;;5051980;28;20049;-11
2022/09/09 09:37:46;;;;;;;2.13;1.75;;;24.40;44.80;;;;;;5050544;28;20139;-11
2022/09/09 09:40:19;;;;;;;1.95;1.75;;;24.40;44.80;;;;;;5049955;28;20045;-11
2022/09/09 09:42:52;;;;;;;3.22;2.13;;;24.40;44.80;;;;;;5051920;28;20109;-11
2022/09/09 09:45:31;;;;;;;3.50;2.08;;;24.40;44.80;;;;;;5043215;28;20486;-11
2022/09/09 09:48:04;;;;;;;2.45;1.95;;;24.50;44.80;;;;;;5031928;28;20060;-11
2022/09/09 09:50:32;;;;;;;3.85;2.25;;;24.50;44.70;;;;;;5031767;28;20097;-11
2022/09/09 09:53:19;;;;;;;2.95;2.10;;;24.50;44.60;;;;;;5031902;28;20486;-11
2022/09/09 09:55:52;;;;;;;2.95;1.92;;;24.50;44.60;;;;;;5030303;28;20057;-11
2022/09/09 09:58:19;;;;;;;2.72;2.00;;;24.50;44.60;;;;;;5031913;28;20061;-11
2022/09/09 10:00:51;;;;;;;2.58;1.70;;;24.50;44.70;;;;;;5048289;28;20056;-11
2022/09/09 10:03:24;;;;;;;2.83;2.50;;;24.50;44.50;;;;;;5032022;28;20135;-11
2022/09/09 10:05:52;;;;;;;3.38;1.98;;;24.50;44.60;;;;;;5032277;28;20057;-11
2022/09/09 10:08:18;;;;;;;3.75;2.05;;;24.50;44.50;;;;;;5049465;28;20549;-11
2022/09/09 10:11:09;;;;;;;2.05;1.85;;;24.50;44.50;;;;;;5049522;28;20072;-11
2022/09/09 10:13:37;;;;;;;2.75;1.98;;;24.50;44.70;;;;;;5049465;28;20128;-11
2022/09/09 10:16:15;;;;;;;2.15;1.95;;;24.50;44.50;;;;;;5049547;28;20119;-11
2022/09/09 10:18:59;;;;;;;2.45;2.13;;;24.50;44.60;;;;;;5049253;28;20068;-11
2022/09/09 10:21:52;;;;;;;2.75;2.03;;;24.50;44.70;;;;;;5049251;28;20083;-11
2022/09/09 10:24:32;;;;;;;2.67;2.30;;;24.40;44.80;;;;;;5049444;28;20441;-11
2022/09/09 10:27:22;;;;;;;1.27;1.20;;;24.40;44.80;;;;;;5049711;28;20045;-11
2022/09/09 10:30:02;;;;;;;2.10;1.90;;;24.40;44.80;;;;;;5049144;28;20053;-11
2022/09/09 10:32:41;;;;;;;2.47;1.92;;;24.40;44.80;;;;;;5051934;28;20082;-11
2022/09/09 10:35:36;;;;;;;2.00;1.80;;;24.40;44.80;;;;;;5052613;28;20053;-11
2022/09/09 10:38:29;;;;;;;2.50;1.92;;;24.40;44.80;;;;;;5060267;28;20052;-11
2022/09/09 10:40:58;;;;;;;3.78;2.03;;;24.40;44.90;;;;;;5052536;28;20505;-11
2022/09/09 10:43:36;;;;;;;4.00;1.80;;;24.40;44.80;;;;;;5052225;28;20057;-11
2022/09/09 10:46:15;;;;;;;2.33;1.80;;;24.40;44.80;;;;;;5051967;28;20091;-11
2022/09/09 10:49:03;;;;;;;2.33;1.90;;;24.50;44.80;;;;;;5051834;28;20121;-11
2022/09/09 10:52:00;;;;;;;1.92;1.60;;;24.40;44.80;;;;;;5052003;28;20049;-11
2022/09/09 10:55:03;;;;;;;2.05;1.85;;;24.40;44.80;;;;;;5052534;28;20052;-11
2022/09/09 10:57:33;;;;;;;2.38;2.08;;;24.40;44.90;;;;;;5051697;28;20056;-11
2022/09/09 11:00:06;;;;;;;1.65;1.55;;;24.40;44.90;;;;;;5051994;28;20049;-11
2022/09/09 11:02:34;;;;;;;1.63;1.52;;;24.40;44.90;;;;;;5052300;28;20467;-11
2022/09/09 11:05:18;;;;;;;2.17;1.90;;;24.40;44.90;;;;;;5051680;28;20113;-11
2022/09/09 11:07:59;;;;;;;1.90;1.70;;;24.40;45.00;;;;;;5051612;28;20056;-11
2022/09/09 11:10:48;;;;;;;2.63;2.03;;;24.40;45.00;;;;;;5051823;28;20076;-11
2022/09/09 11:13:20;;;;;;;1.63;1.52;;;24.40;45.00;;;;;;5051860;28;20520;-11
2022/09/09 11:15:53;;;;;;;2.42;2.20;;;24.40;44.90;;;;;;5051916;28;20048;-11
2022/09/09 11:18:22;;;;;;;2.10;1.90;;;24.40;45.00;;;;;;5052136;28;20053;-11
2022/09/09 11:20:55;;;;;;;2.10;1.90;;;24.40;45.00;;;;;;5051461;28;20052;-11
2022/09/09 11:23:27;;;;;;;2.33;1.85;;;24.40;45.10;;;;;;5052031;28;20085;-11
2022/09/09 11:26:03;;;;;;;2.20;2.00;;;24.40;45.00;;;;;;5051956;28;20401;-11
2022/09/09 11:29:13;;;;;;;2.85;2.00;;;24.40;45.10;;;;;;5051940;28;20056;-11
2022/09/09 11:32:03;;;;;;;1.80;1.70;;;24.40;45.10;;;;;;5053814;28;20490;-11
2022/09/09 11:34:33;;;;;;;2.38;2.00;;;24.40;44.90;;;;;;5051366;28;20083;-11
2022/09/09 11:37:32;;;;;;;1.98;1.50;;;24.40;45.00;;;;;;5051293;28;20483;-11
2022/09/09 11:40:26;;;;;;;2.78;1.83;;;24.40;44.90;;;;;;5051337;28;20056;-11
2022/09/09 11:43:13;;;;;;;3.00;1.92;;;24.40;44.90;;;;;;5050180;28;20053;-11
2022/09/09 11:45:49;;;;;;;3.83;2.05;;;24.40;44.90;;;;;;5051367;28;20084;-11
2022/09/09 11:48:35;;;;;;;1.98;1.88;;;24.40;44.90;;;;;;5050980;28;20061;-11
2022/09/09 11:51:07;;;;;;;2.40;1.80;;;24.40;44.90;;;;;;5051799;28;20059;-11
2022/09/09 11:53:34;;;;;;;2.45;2.15;;;24.40;44.90;;;;;;5051620;28;20136;-11
2022/09/09 11:56:31;;;;;;;4.07;1.88;;;24.40;44.90;;;;;;5051240;28;20049;-11
2022/09/09 11:58:58;;;;;;;2.05;1.85;;;24.40;44.90;;;;;;5052685;28;20148;-11
2022/09/09 12:01:42;;;;;;;2.33;1.70;;;24.50;44.80;;;;;;5051123;28;20554;-11
2022/09/09 12:04:33;;;;;;;1.92;1.70;;;24.50;44.80;;;;;;5051111;28;20053;-11
2022/09/09 12:07:20;;;;;;;2.00;1.60;;;24.50;45.30;;;;;;5051290;28;20068;-11
2022/09/09 12:09:56;;;;;;;1.98;1.80;;;24.50;44.90;;;;;;5070754;28;20059;-11
2022/09/09 12:12:25;;;;;;;1.75;1.65;;;24.50;44.80;;;;;;5051176;28;20406;-11
2022/09/09 12:14:56;;;;;;;2.00;1.67;;;24.50;44.80;;;;;;5051494;28;20140;-11
2022/09/09 12:17:24;;;;;;;1.85;1.73;;;24.50;44.80;;;;;;5051330;28;20049;-11
2022/09/09 12:20:12;;;;;;;3.55;1.65;;;24.50;44.90;;;;;;5050845;28;20053;-11
2022/09/09 12:23:16;;;;;;;2.90;1.85;;;24.50;44.90;;;;;;5050849;28;20128;-11
2022/09/09 12:26:15;;;;;;;1.98;1.65;;;24.40;44.90;;;;;;5051112;28;20053;-11
2022/09/09 12:29:01;;;;;;;2.67;1.90;;;24.40;44.90;;;;;;5050744;28;20060;-11
2022/09/09 12:31:53;;;;;;;2.58;1.90;;;24.40;44.80;;;;;;5051378;28;20049;-11
2022/09/09 12:34:40;;;;;;;4.43;1.90;;;24.40;44.90;;;;;;5050897;28;20052;-10
2022/09/09 12:37:18;;;;;;;1.23;1.17;;;24.50;45.00;;;;;;5050480;28;20053;-11
2022/09/09 12:40:39;;;;;;;1.90;1.70;;;24.50;44.90;;;;;;5050614;28;20140;-10
2022/09/09 12:43:20;;;;;;;2.83;1.80;;;24.50;44.80;;;;;;5061863;28;20080;-10
2022/09/09 12:45:45;;;;;;;1.90;1.80;;;24.50;44.90;;;;;;5050385;28;20106;-10
2022/09/09 12:48:15;;;;;;;3.38;1.95;;;24.50;44.70;;;;;;5050558;28;20125;-10
2022/09/09 12:50:50;;;;;;;2.20;2.00;;;24.50;44.70;;;;;;5051090;28;20049;-11
2022/09/09 12:53:26;;;;;;;2.90;1.90;;;24.60;44.70;;;;;;5050548;28;20045;-11
2022/09/09 12:55:56;;;;;;;2.42;1.80;;;24.50;44.80;;;;;;5050720;28;20060;-11
2022/09/09 12:58:22;;;;;;;1.90;1.80;;;24.50;44.80;;;;;;5050394;28;20060;-11
2022/09/09 13:00:56;;;;;;;2.58;1.48;;;24.50;44.90;;;;;;5050342;28;20059;-10
2022/09/09 13:03:23;;;;;;;3.25;2.00;;;24.40;44.90;;;;;;5050422;28;20053;-10
2022/09/09 13:05:49;;;;;;;3.05;1.75;;;24.40;44.90;;;;;;5050287;28;20136;-10
2022/09/09 13:08:22;;;;;;;3.72;2.10;;;24.40;44.90;;;;;;5050686;28;20053;-10
2022/09/09 13:10:55;;;;;;;3.00;1.80;;;24.40;45.00;;;;;;5050627;28;20077;-10
2022/09/09 13:13:29;;;;;;;2.05;1.80;;;24.30;45.10;;;;;;5050660;28;20052;-10
2022/09/09 13:16:00;;;;;;;2.92;1.70;;;24.30;45.00;;;;;;5050759;28;20085;-10
2022/09/09 13:18:32;;;;;;;2.20;1.73;;;24.30;45.10;;;;;;5050218;28;20052;-10
2022/09/09 13:20:58;;;;;;;1.80;1.33;;;24.30;45.40;;;;;;5050553;28;20106;-10
2022/09/09 13:23:29;;;;;;;1.98;1.77;;;24.30;45.10;;;;;;5050577;28;20072;-10